Suggestion ActiveSkyP3D Windshear Logic

hasangunenc

New member
Hi, tonight I was flying to Antalya Int. (LTAI) the weather when I was planning to descent metar was like that : LTAI 152350Z 19022KT 9999 -SHRA FEW015CB BKN025 14/10 Q1003 WS ALL RWY NOSIG

And Active Sky is created windshear on somewhere in airport area according to map. But later, on Final Approach the metar changed to :
LTAI 160120Z 01006KT 9999 SCT030 13/10 Q1003 WS ALL RWY NOSIG

When CB removed from metar, windshear disappeared even if there were WS ALL RWY in metar.

I think ASP3D should create the windshears when WS is reported in metar obviously. ( close to rwy thresholds)

Have a nice work!
 
Top